createdAt,value
2023-02-19T00:01:47.552Z,10.34
2023-02-19T00:04:20.386Z,10.27
2023-02-19T00:06:48.072Z,10.22
2023-02-19T00:09:17.399Z,10.19
2023-02-19T00:11:44.720Z,10.16
2023-02-19T00:14:16.301Z,10.12
2023-02-19T00:16:43.597Z,10.08
2023-02-19T00:19:16.432Z,10.03
2023-02-19T00:21:43.865Z,10.01
2023-02-19T00:24:12.540Z,10.00
2023-02-19T00:26:40.981Z,9.99
2023-02-19T00:29:09.574Z,9.96
2023-02-19T00:31:37.026Z,9.97
2023-02-19T00:34:06.451Z,9.94
2023-02-19T00:36:37.905Z,9.90
2023-02-19T00:39:07.150Z,9.85
2023-02-19T00:41:35.760Z,9.84
2023-02-19T00:44:05.591Z,9.83
2023-02-19T00:46:41.651Z,9.78
2023-02-19T00:49:16.031Z,9.75
2023-02-19T00:51:43.098Z,9.72
2023-02-19T00:54:10.842Z,9.70
2023-02-19T00:56:37.942Z,9.70
2023-02-19T00:59:05.003Z,9.67
2023-02-19T01:01:32.263Z,9.66
2023-02-19T01:03:59.335Z,9.64
2023-02-19T01:06:26.468Z,9.61
2023-02-19T01:08:53.676Z,9.56
2023-02-19T01:11:20.731Z,9.53
2023-02-19T01:13:48.154Z,9.57
2023-02-19T01:16:21.149Z,9.54
2023-02-19T01:18:48.834Z,9.60
2023-02-19T01:21:21.126Z,9.59
2023-02-19T01:23:50.041Z,9.58
2023-02-19T01:26:20.049Z,9.59
2023-02-19T01:28:48.500Z,9.57
2023-02-19T01:31:21.457Z,9.59
2023-02-19T01:33:52.120Z,9.58
2023-02-19T01:36:19.479Z,9.59
2023-02-19T01:38:46.648Z,9.54
2023-02-19T01:41:17.137Z,9.50
2023-02-19T01:44:03.948Z,9.51
2023-02-19T01:46:35.869Z,9.48
2023-02-19T01:49:09.119Z,9.50
2023-02-19T01:51:39.584Z,9.48
2023-02-19T01:54:11.437Z,9.43
2023-02-19T01:56:42.907Z,9.37
2023-02-19T01:59:10.703Z,9.36
2023-02-19T02:01:39.495Z,9.27
2023-02-19T02:04:11.175Z,9.22
2023-02-19T02:06:59.448Z,9.13
2023-02-19T02:09:47.843Z,9.10
2023-02-19T02:12:15.560Z,9.07
2023-02-19T02:14:48.233Z,9.09
2023-02-19T02:17:56.870Z,9.06
2023-02-19T02:21:02.562Z,9.06
2023-02-19T02:23:41.335Z,9.07
2023-02-19T02:26:25.573Z,9.06
2023-02-19T02:29:11.478Z,9.07
2023-02-19T02:31:43.682Z,9.06
2023-02-19T02:34:27.660Z,9.08
2023-02-19T02:36:57.617Z,9.06
2023-02-19T02:39:28.322Z,9.03
2023-02-19T02:42:17.342Z,9.05
2023-02-19T02:45:11.510Z,9.05
2023-02-19T02:47:55.379Z,9.03
2023-02-19T02:50:26.738Z,9.01
2023-02-19T02:53:18.896Z,8.97
2023-02-19T02:55:49.894Z,8.97
2023-02-19T02:58:18.242Z,8.92
2023-02-19T03:01:11.215Z,8.84
2023-02-19T03:03:41.775Z,8.79
2023-02-19T03:06:12.580Z,8.75
2023-02-19T03:09:00.456Z,8.71
2023-02-19T03:11:48.017Z,8.67
2023-02-19T03:15:02.650Z,8.70
2023-02-19T03:18:00.304Z,8.73
2023-02-19T03:20:28.329Z,8.75
2023-02-19T03:22:57.073Z,8.74
2023-02-19T03:25:46.597Z,8.76
2023-02-19T03:28:41.620Z,8.77
2023-02-19T03:31:15.894Z,8.77
2023-02-19T03:33:45.785Z,8.74
2023-02-19T03:36:19.184Z,8.73
2023-02-19T03:38:46.359Z,8.70
2023-02-19T03:41:26.589Z,8.68
2023-02-19T03:44:09.919Z,8.64
2023-02-19T03:46:51.317Z,8.59
2023-02-19T03:49:50.094Z,8.57
2023-02-19T03:52:54.301Z,8.54
2023-02-19T03:55:51.822Z,8.54
2023-02-19T03:58:50.263Z,8.54
2023-02-19T04:01:23.248Z,8.52
2023-02-19T04:04:35.539Z,8.52
2023-02-19T04:07:04.498Z,8.50
2023-02-19T04:09:43.049Z,8.48
2023-02-19T04:12:15.773Z,8.49
2023-02-19T04:14:47.432Z,8.44
2023-02-19T04:17:25.918Z,8.40
2023-02-19T04:19:54.196Z,8.39
2023-02-19T04:22:22.907Z,8.32
2023-02-19T04:24:53.676Z,8.26
2023-02-19T04:27:20.798Z,8.22
2023-02-19T04:29:48.375Z,8.21
2023-02-19T04:32:15.478Z,8.18
2023-02-19T04:34:42.567Z,8.18
2023-02-19T04:37:09.579Z,8.16
2023-02-19T04:39:36.790Z,8.14
2023-02-19T04:42:04.144Z,8.07
2023-02-19T04:44:31.159Z,8.08
2023-02-19T04:46:58.290Z,8.07
2023-02-19T04:49:25.278Z,8.04
2023-02-19T04:51:52.419Z,8.02
2023-02-19T04:54:19.392Z,8.01
2023-02-19T04:56:46.569Z,8.02
2023-02-19T04:59:13.844Z,8.02
2023-02-19T05:01:41.092Z,8.02
2023-02-19T05:04:08.318Z,8.04
2023-02-19T05:06:35.555Z,8.02
2023-02-19T05:09:02.668Z,8.02
2023-02-19T05:11:29.822Z,8.00
2023-02-19T05:13:57.073Z,7.98
2023-02-19T05:16:24.327Z,7.94
2023-02-19T05:18:51.397Z,7.92
2023-02-19T05:21:18.990Z,7.96
2023-02-19T05:23:46.155Z,7.97
2023-02-19T05:26:18.101Z,7.99
2023-02-19T05:28:47.570Z,7.99
2023-02-19T05:31:15.199Z,7.97
2023-02-19T05:33:44.318Z,7.98
2023-02-19T05:36:13.812Z,7.98
2023-02-19T05:38:42.020Z,7.96
2023-02-19T05:41:13.992Z,7.98
2023-02-19T05:43:42.360Z,8.00
2023-02-19T05:46:10.954Z,8.03
2023-02-19T05:48:38.184Z,8.06
2023-02-19T05:51:08.314Z,8.14
2023-02-19T05:53:35.696Z,8.30
2023-02-19T05:56:03.180Z,8.55
2023-02-19T05:58:30.555Z,8.93
2023-02-19T06:00:57.617Z,9.37
2023-02-19T06:03:24.734Z,9.84
2023-02-19T06:05:51.898Z,10.33
2023-02-19T06:08:19.010Z,10.86
2023-02-19T06:10:46.237Z,11.34
2023-02-19T06:13:13.283Z,11.89
2023-02-19T06:15:40.557Z,12.54
2023-02-19T06:18:07.538Z,13.13
2023-02-19T06:20:34.779Z,13.58
2023-02-19T06:23:01.903Z,14.12
2023-02-19T06:25:29.065Z,14.64
2023-02-19T06:27:56.138Z,15.07
2023-02-19T06:30:26.124Z,15.46
2023-02-19T06:32:54.397Z,15.90
2023-02-19T06:35:21.663Z,16.45
2023-02-19T06:37:49.688Z,16.60
2023-02-19T06:40:17.342Z,16.46
2023-02-19T06:42:44.600Z,16.61
2023-02-19T06:45:11.912Z,16.66
2023-02-19T06:47:38.988Z,16.70
2023-02-19T06:50:06.592Z,16.67
2023-02-19T06:52:33.581Z,16.67
2023-02-19T06:55:00.800Z,16.70
2023-02-19T06:57:27.850Z,16.97
2023-02-19T06:59:54.948Z,17.33
2023-02-19T07:02:22.019Z,17.51
2023-02-19T07:04:49.234Z,17.64
2023-02-19T07:07:16.373Z,17.29
2023-02-19T07:09:43.377Z,16.87
2023-02-19T07:12:10.593Z,16.35
2023-02-19T07:14:37.681Z,15.86
2023-02-19T07:17:06.920Z,15.43
2023-02-19T07:19:35.031Z,15.53
2023-02-19T07:22:02.098Z,15.66
2023-02-19T07:24:29.227Z,15.87
2023-02-19T07:26:56.369Z,16.03
2023-02-19T07:29:23.549Z,16.34
2023-02-19T07:31:50.768Z,16.89
2023-02-19T07:34:17.996Z,16.91
2023-02-19T07:36:45.155Z,16.86
2023-02-19T07:39:15.830Z,16.81
2023-02-19T07:41:43.141Z,16.49
2023-02-19T07:44:16.538Z,16.04
2023-02-19T07:46:44.302Z,15.69
2023-02-19T07:49:11.432Z,15.48
2023-02-19T07:51:40.078Z,15.13
2023-02-19T07:54:08.229Z,15.04
2023-02-19T07:56:35.424Z,14.84
2023-02-19T07:59:02.545Z,14.88
2023-02-19T08:01:48.421Z,14.81
2023-02-19T08:04:16.859Z,14.71
2023-02-19T08:06:44.216Z,14.77
2023-02-19T08:09:12.015Z,14.37
2023-02-19T08:11:57.735Z,13.87
2023-02-19T08:14:28.301Z,14.16
2023-02-19T08:16:55.974Z,14.07
2023-02-19T08:19:23.398Z,13.84
2023-02-19T08:21:50.866Z,13.75
2023-02-19T08:24:17.838Z,13.59
2023-02-19T08:26:45.103Z,13.43
2023-02-19T08:29:12.172Z,13.48
2023-02-19T08:31:39.633Z,13.56
2023-02-19T08:34:06.958Z,13.57
2023-02-19T08:36:34.001Z,13.49
2023-02-19T08:39:01.090Z,13.47
2023-02-19T08:41:28.315Z,13.63
2023-02-19T08:43:55.459Z,13.62
2023-02-19T08:46:22.964Z,13.75
2023-02-19T08:48:50.466Z,13.68
2023-02-19T08:51:17.526Z,13.66
2023-02-19T08:53:44.685Z,13.46
2023-02-19T08:56:15.133Z,13.58
2023-02-19T08:58:42.856Z,13.75
2023-02-19T09:01:12.705Z,13.77
2023-02-19T09:03:40.409Z,13.77
2023-02-19T09:06:08.267Z,13.66
2023-02-19T09:08:35.444Z,13.68
2023-02-19T09:11:04.706Z,13.63
2023-02-19T09:13:31.897Z,13.76
2023-02-19T09:15:59.275Z,13.75
2023-02-19T09:18:26.913Z,13.89
2023-02-19T09:20:54.069Z,14.02
2023-02-19T09:23:21.244Z,14.00
2023-02-19T09:25:48.271Z,14.15
2023-02-19T09:28:17.028Z,14.34
2023-02-19T09:30:44.155Z,14.34
2023-02-19T09:33:11.295Z,14.25
2023-02-19T09:35:41.222Z,14.36
2023-02-19T09:38:10.781Z,14.36
2023-02-19T09:40:39.449Z,14.62
2023-02-19T09:43:15.545Z,14.60
2023-02-19T09:45:43.095Z,14.64
2023-02-19T09:48:11.273Z,14.60
2023-02-19T09:50:42.819Z,14.51
2023-02-19T09:53:21.185Z,14.54
2023-02-19T09:55:48.735Z,14.77
2023-02-19T09:58:30.969Z,14.73
2023-02-19T10:01:01.778Z,14.56
2023-02-19T10:03:35.231Z,14.56
2023-02-19T10:06:11.178Z,14.55
2023-02-19T10:08:41.617Z,14.49
2023-02-19T10:11:13.228Z,14.59
2023-02-19T10:13:48.228Z,14.61
2023-02-19T10:16:24.526Z,14.72
2023-02-19T10:18:52.154Z,14.69
2023-02-19T10:21:22.946Z,14.78
2023-02-19T10:24:00.057Z,14.75
2023-02-19T10:26:27.729Z,14.73
2023-02-19T10:28:55.707Z,14.83
2023-02-19T10:31:25.968Z,14.89
2023-02-19T10:33:56.146Z,14.95
2023-02-19T10:36:34.195Z,15.03
2023-02-19T10:39:03.990Z,15.06
2023-02-19T10:41:31.727Z,15.11
2023-02-19T10:44:13.933Z,15.19
2023-02-19T10:46:47.423Z,14.93
2023-02-19T10:49:33.110Z,15.00
2023-02-19T10:52:20.197Z,15.03
2023-02-19T10:54:55.392Z,15.09
2023-02-19T10:57:34.276Z,14.92
2023-02-19T11:00:15.443Z,14.77
2023-02-19T11:02:46.050Z,14.86
2023-02-19T11:05:15.208Z,14.92
2023-02-19T11:07:49.636Z,14.80
2023-02-19T11:10:42.433Z,14.75
2023-02-19T11:13:16.901Z,14.73
2023-02-19T11:15:44.549Z,14.81
2023-02-19T11:18:14.537Z,14.95
2023-02-19T11:20:57.736Z,14.94
2023-02-19T11:23:30.977Z,15.15
2023-02-19T11:26:02.888Z,15.20
2023-02-19T11:28:34.592Z,15.09
2023-02-19T11:31:23.848Z,15.04
2023-02-19T11:33:54.414Z,15.07
2023-02-19T11:36:34.985Z,15.06
2023-02-19T11:39:17.065Z,15.07
2023-02-19T11:42:04.519Z,15.11
2023-02-19T11:45:04.808Z,15.12
2023-02-19T11:47:59.794Z,15.19
2023-02-19T11:50:55.748Z,15.41
2023-02-19T11:53:32.371Z,15.49
2023-02-19T11:56:09.906Z,15.19
2023-02-19T11:59:05.770Z,14.96
2023-02-19T12:01:54.332Z,15.04
2023-02-19T12:04:40.207Z,15.21
2023-02-19T12:07:48.832Z,15.32
2023-02-19T12:10:25.101Z,15.20
2023-02-19T12:13:23.686Z,15.14
2023-02-19T12:16:18.219Z,15.04
2023-02-19T12:18:54.043Z,14.85
2023-02-19T12:21:36.367Z,14.95
2023-02-19T12:24:15.918Z,15.09
2023-02-19T12:27:07.829Z,15.12
2023-02-19T12:30:03.313Z,15.21
2023-02-19T12:33:01.074Z,15.20
2023-02-19T12:35:54.218Z,15.01
2023-02-19T12:38:40.032Z,14.97
2023-02-19T12:41:16.201Z,14.97
2023-02-19T12:43:53.421Z,15.11
2023-02-19T12:46:28.358Z,15.08
2023-02-19T12:49:21.405Z,15.08
2023-02-19T12:52:16.577Z,15.12
2023-02-19T12:54:51.067Z,15.00
2023-02-19T12:57:26.120Z,15.30
2023-02-19T13:00:00.380Z,15.29
2023-02-19T13:03:20.966Z,15.17
2023-02-19T13:05:58.792Z,15.23
2023-02-19T13:09:07.228Z,15.34
2023-02-19T13:11:53.672Z,15.06
2023-02-19T13:14:43.711Z,15.00
2023-02-19T13:17:20.633Z,15.08
2023-02-19T13:19:50.954Z,15.11
2023-02-19T13:22:58.225Z,14.94
2023-02-19T13:25:52.180Z,14.97
2023-02-19T13:28:31.330Z,15.15
2023-02-19T13:31:32.545Z,15.30
2023-02-19T13:34:05.657Z,15.38
2023-02-19T13:36:36.495Z,15.22
2023-02-19T13:39:07.469Z,15.14
2023-02-19T13:41:41.752Z,15.11
2023-02-19T13:44:19.209Z,15.08
2023-02-19T13:46:48.880Z,15.12
2023-02-19T13:49:42.395Z,15.08
2023-02-19T13:52:33.631Z,15.26
2023-02-19T13:55:40.747Z,15.09
2023-02-19T13:58:33.362Z,14.90
2023-02-19T14:01:01.552Z,14.91
2023-02-19T14:03:48.533Z,14.80
2023-02-19T14:06:15.864Z,14.70
2023-02-19T14:08:51.553Z,14.61
2023-02-19T14:11:41.577Z,14.59
2023-02-19T14:14:34.447Z,14.63
2023-02-19T14:17:35.095Z,14.57
2023-02-19T14:20:05.256Z,14.51
2023-02-19T14:22:48.919Z,14.62
2023-02-19T14:25:31.207Z,14.66
2023-02-19T14:28:25.506Z,14.78
2023-02-19T14:30:57.390Z,14.71
2023-02-19T14:33:49.644Z,14.57
2023-02-19T14:36:44.313Z,14.65
2023-02-19T14:39:21.467Z,14.66
2023-02-19T14:41:54.813Z,14.71
2023-02-19T14:44:38.176Z,14.66
2023-02-19T14:47:22.031Z,14.64
2023-02-19T14:50:01.290Z,14.58
2023-02-19T14:52:32.881Z,14.57
2023-02-19T14:55:00.090Z,14.52
2023-02-19T14:57:36.073Z,14.42
2023-02-19T15:00:21.955Z,14.33
2023-02-19T15:02:51.717Z,14.29
2023-02-19T15:05:24.796Z,14.25
2023-02-19T15:07:55.364Z,14.16
2023-02-19T15:10:23.083Z,14.20
2023-02-19T15:12:57.849Z,14.19
2023-02-19T15:15:29.444Z,14.11
2023-02-19T15:17:59.281Z,14.05
2023-02-19T15:20:31.049Z,14.11
2023-02-19T15:22:59.763Z,14.12
2023-02-19T15:25:39.368Z,14.13
2023-02-19T15:28:20.834Z,14.14
2023-02-19T15:31:00.035Z,14.15
2023-02-19T15:33:28.698Z,14.10
2023-02-19T15:36:03.305Z,14.05
2023-02-19T15:38:31.798Z,14.04
2023-02-19T15:41:00.122Z,13.96
2023-02-19T15:43:51.431Z,14.00
2023-02-19T15:46:22.550Z,13.97
2023-02-19T15:48:55.695Z,13.90
2023-02-19T15:51:32.106Z,13.89
2023-02-19T15:54:08.000Z,13.85
2023-02-19T15:56:38.521Z,13.80
2023-02-19T15:59:36.719Z,13.76
2023-02-19T16:02:05.113Z,13.70
2023-02-19T16:04:34.720Z,13.69
2023-02-19T16:07:03.997Z,13.66
2023-02-19T16:09:33.687Z,13.60
2023-02-19T16:12:02.385Z,13.54
2023-02-19T16:14:37.617Z,13.48
2023-02-19T16:17:10.911Z,13.36
2023-02-19T16:19:44.206Z,13.33
2023-02-19T16:22:24.564Z,13.28
2023-02-19T16:24:55.533Z,13.28
2023-02-19T16:27:41.934Z,13.21
2023-02-19T16:30:18.367Z,13.20
2023-02-19T16:32:47.113Z,13.15
2023-02-19T16:35:37.226Z,13.12
2023-02-19T16:38:14.352Z,13.08
2023-02-19T16:40:54.565Z,13.03
2023-02-19T16:43:31.758Z,12.97
2023-02-19T16:46:00.848Z,12.94
2023-02-19T16:48:29.123Z,12.94
2023-02-19T16:50:56.884Z,12.90
2023-02-19T16:53:25.416Z,12.89
2023-02-19T16:55:53.229Z,12.84
2023-02-19T16:58:22.078Z,12.82
2023-02-19T17:01:01.936Z,12.80
2023-02-19T17:03:29.866Z,12.76
2023-02-19T17:05:58.368Z,12.73
2023-02-19T17:08:40.111Z,12.71
2023-02-19T17:11:15.853Z,12.75
2023-02-19T17:13:46.955Z,12.73
2023-02-19T17:16:30.393Z,12.77
2023-02-19T17:19:01.392Z,12.78
2023-02-19T17:21:32.307Z,12.81
2023-02-19T17:24:00.890Z,12.83
2023-02-19T17:26:31.208Z,12.83
2023-02-19T17:29:01.538Z,12.84
2023-02-19T17:31:30.606Z,12.84
2023-02-19T17:34:00.691Z,12.79
2023-02-19T17:36:31.932Z,12.77
2023-02-19T17:39:02.882Z,12.76
2023-02-19T17:41:31.622Z,12.75
2023-02-19T17:44:00.480Z,12.78
2023-02-19T17:46:29.044Z,12.76
2023-02-19T17:48:58.181Z,12.73
2023-02-19T17:51:26.949Z,12.70
2023-02-19T17:53:55.680Z,12.67
2023-02-19T17:56:27.097Z,12.66
2023-02-19T17:58:58.004Z,12.63
2023-02-19T18:01:27.877Z,12.65
2023-02-19T18:03:56.725Z,12.63
2023-02-19T18:06:25.113Z,12.63
2023-02-19T18:08:55.426Z,12.65
2023-02-19T18:11:25.752Z,12.67
2023-02-19T18:13:55.237Z,12.66
2023-02-19T18:16:23.725Z,12.64
2023-02-19T18:18:51.980Z,12.63
2023-02-19T18:21:21.183Z,12.62
2023-02-19T18:23:50.276Z,12.60
2023-02-19T18:26:21.680Z,12.56
2023-02-19T18:28:49.926Z,12.55
2023-02-19T18:31:17.571Z,12.55
2023-02-19T18:33:45.154Z,12.54
2023-02-19T18:36:13.718Z,12.56
2023-02-19T18:38:43.034Z,12.57
2023-02-19T18:41:14.847Z,12.52
2023-02-19T18:43:42.637Z,12.50
2023-02-19T18:46:10.790Z,12.50
2023-02-19T18:48:39.252Z,12.48
2023-02-19T18:51:11.129Z,12.49
2023-02-19T18:53:38.621Z,12.46
2023-02-19T18:56:09.177Z,12.42
2023-02-19T18:58:36.520Z,12.38
2023-02-19T19:01:03.753Z,12.36
2023-02-19T19:03:32.154Z,12.33
2023-02-19T19:05:59.755Z,12.30
2023-02-19T19:08:29.143Z,12.28
2023-02-19T19:10:57.654Z,12.28
2023-02-19T19:13:25.672Z,12.25
2023-02-19T19:15:52.764Z,12.25
2023-02-19T19:18:19.976Z,12.23
2023-02-19T19:20:47.313Z,12.21
2023-02-19T19:23:14.712Z,12.18
2023-02-19T19:25:41.775Z,12.17
2023-02-19T19:28:09.197Z,12.13
2023-02-19T19:30:36.653Z,12.12
2023-02-19T19:33:04.338Z,12.11
2023-02-19T19:35:35.007Z,12.09
2023-02-19T19:38:02.622Z,12.07
2023-02-19T19:40:30.785Z,12.04
2023-02-19T19:42:58.080Z,12.05
2023-02-19T19:45:25.388Z,12.04
2023-02-19T19:47:53.274Z,12.07
2023-02-19T19:50:21.590Z,12.06
2023-02-19T19:52:49.907Z,12.05
2023-02-19T19:55:17.812Z,12.06
2023-02-19T19:57:45.194Z,12.05
2023-02-19T20:00:16.365Z,12.03
2023-02-19T20:02:47.001Z,12.03
2023-02-19T20:05:17.012Z,12.03
2023-02-19T20:07:45.991Z,12.00
2023-02-19T20:10:16.417Z,11.94
2023-02-19T20:12:44.530Z,11.93
2023-02-19T20:15:13.566Z,11.91
2023-02-19T20:17:41.184Z,11.91
2023-02-19T20:20:09.998Z,11.89
2023-02-19T20:22:39.497Z,11.88
2023-02-19T20:25:07.263Z,11.86
2023-02-19T20:27:34.635Z,11.82
2023-02-19T20:30:02.370Z,11.84
2023-02-19T20:32:29.520Z,11.80
2023-02-19T20:34:56.815Z,11.79
2023-02-19T20:37:23.858Z,11.77
2023-02-19T20:39:51.123Z,11.77
2023-02-19T20:42:19.126Z,11.76
2023-02-19T20:44:46.346Z,11.74
2023-02-19T20:47:13.812Z,11.72
2023-02-19T20:49:46.529Z,11.71
2023-02-19T20:52:17.355Z,11.70
2023-02-19T20:54:45.176Z,11.70
2023-02-19T20:57:14.362Z,11.69
2023-02-19T20:59:41.825Z,11.62
2023-02-19T21:02:16.853Z,11.56
2023-02-19T21:04:44.279Z,11.48
2023-02-19T21:07:11.384Z,11.44
2023-02-19T21:09:38.771Z,11.37
2023-02-19T21:12:06.180Z,11.36
2023-02-19T21:14:33.642Z,11.34
2023-02-19T21:17:01.428Z,11.33
2023-02-19T21:19:29.441Z,11.33
2023-02-19T21:21:59.955Z,11.33
2023-02-19T21:24:28.633Z,11.33
2023-02-19T21:26:57.124Z,11.33
2023-02-19T21:29:27.320Z,11.32
2023-02-19T21:31:58.309Z,11.30
2023-02-19T21:34:29.444Z,11.28
2023-02-19T21:36:57.856Z,11.24
2023-02-19T21:39:27.778Z,11.26
2023-02-19T21:41:55.932Z,11.24
2023-02-19T21:44:23.605Z,11.20
2023-02-19T21:46:51.367Z,11.16
2023-02-19T21:49:19.328Z,11.13
2023-02-19T21:51:49.079Z,11.09
2023-02-19T21:54:21.307Z,11.09
2023-02-19T21:56:49.018Z,11.11
2023-02-19T21:59:16.141Z,11.09
2023-02-19T22:01:43.703Z,11.10
2023-02-19T22:04:14.635Z,11.08
2023-02-19T22:06:42.373Z,11.03
2023-02-19T22:09:10.342Z,11.01
2023-02-19T22:11:37.685Z,10.99
2023-02-19T22:14:04.920Z,10.96
2023-02-19T22:16:32.466Z,10.91
2023-02-19T22:19:01.841Z,10.89
2023-02-19T22:21:34.550Z,10.86
2023-02-19T22:24:03.198Z,10.79
2023-02-19T22:26:34.137Z,10.74
2023-02-19T22:29:07.304Z,10.74
2023-02-19T22:31:35.852Z,10.74
2023-02-19T22:34:03.152Z,10.78
2023-02-19T22:36:32.025Z,10.84
2023-02-19T22:38:59.589Z,10.84
2023-02-19T22:41:27.235Z,10.84
2023-02-19T22:43:55.827Z,10.82
2023-02-19T22:46:25.634Z,10.79
2023-02-19T22:48:52.962Z,10.76
2023-02-19T22:51:22.514Z,10.74
2023-02-19T22:53:52.065Z,10.73
2023-02-19T22:56:23.450Z,10.71
2023-02-19T22:58:51.447Z,10.71
2023-02-19T23:01:19.117Z,10.68
2023-02-19T23:03:56.750Z,10.68
2023-02-19T23:06:27.403Z,10.65
2023-02-19T23:08:56.820Z,10.63
2023-02-19T23:11:27.079Z,10.61
2023-02-19T23:13:56.057Z,10.59
2023-02-19T23:16:23.273Z,10.58
2023-02-19T23:18:50.798Z,10.56
2023-02-19T23:21:18.984Z,10.52
2023-02-19T23:23:48.224Z,10.50
2023-02-19T23:26:16.015Z,10.47
2023-02-19T23:28:43.800Z,10.48
2023-02-19T23:31:11.608Z,10.45
2023-02-19T23:33:39.008Z,10.42
2023-02-19T23:36:07.039Z,10.40
2023-02-19T23:38:34.193Z,10.41
2023-02-19T23:41:01.456Z,10.38
2023-02-19T23:43:28.578Z,10.37
2023-02-19T23:45:55.835Z,10.37
2023-02-19T23:48:23.066Z,10.33
2023-02-19T23:50:50.126Z,10.34
2023-02-19T23:53:17.440Z,10.37
2023-02-19T23:55:44.504Z,10.36
2023-02-19T23:58:11.707Z,10.35
